KBYH

Arkansas International Airport

Blytheville, Arkansas, USA
METAR KBYH 182150Z 06003KT 10SM SKC 12/00 A3011
Observed Flight Rules
Dec-18 @ 21:50 UTC (8 hours ago) Visual Flight Rules
Wind Visibility Clouds
60° at 3 knots 10 miles
  • Clear skies
Temperatures Readings
Current 12°C / 54°F
Dewpoint 0°C / 32°F
Humidity 44%
Altimeter 30.11" Hg
Pressure 1020 hPa
Elevation 78
METAR KBYH 182150Z 06003KT 10SM SKC 12/00 A3011
Observed Flight Rules
Dec-18 @ 21:50 UTC
(8 hours ago)
VFR
Wind Visibility
60° at 3 knots 10 miles
Clouds
  • Clear skies
Temperature Dewpoint
12°C / 54°F 0°C / 32°F
Humidity Altimeter Pressure
44% 30.11" Hg 1020 hPa